Time;durP1;ratioP1;P1;durP2;ratioP2;P2;SDS_P1;SDS_P2;PMS_P1;PMS_P2;Temp;Humidity;BMP_temperature;BMP_pressure;BME280_temperature;BME280_humidity;BME280_pressure;Samples;Min_cycle;Max_cycle;Signal;HPM_P1;HPM_P2
2022/01/17 00:01:23;;;;;;;12.23;8.27;;;;;;;28.83;51.10;101231.13;5088315;27;64751;-34
2022/01/17 00:03:53;;;;;;;13.13;8.43;;;;;;;28.84;51.40;101216.59;5091513;27;71367;-36
2022/01/17 00:06:24;;;;;;;15.75;8.40;;;;;;;28.88;51.03;101231.38;5084021;27;65606;-35
2022/01/17 00:08:55;;;;;;;14.60;8.88;;;;;;;28.92;51.29;101229.94;5086451;27;70013;-36
2022/01/17 00:11:25;;;;;;;17.83;9.55;;;;;;;28.94;51.61;101237.84;5087354;27;66288;-36
2022/01/17 00:13:57;;;;;;;19.80;9.27;;;;;;;28.97;52.15;101253.63;5085369;27;70518;-37
2022/01/17 00:16:40;;;;;;;30.15;13.45;;;;;;;29.00;52.62;101284.81;5093100;27;65092;-37
2022/01/17 00:21:53;;;;;;;55.83;26.52;;;;;;;29.10;54.49;101333.97;5090085;27;66144;-36
2022/01/17 00:24:24;;;;;;;75.55;35.70;;;;;;;29.10;56.22;101355.56;5084131;27;69577;-36
2022/01/17 00:26:55;;;;;;;73.82;31.83;;;;;;;29.10;56.74;101372.59;5084941;27;66580;-34
2022/01/17 00:29:27;;;;;;;80.10;31.45;;;;;;;29.11;56.66;101354.53;5080465;27;70111;-37
2022/01/17 00:31:58;;;;;;;58.75;29.70;;;;;;;29.13;56.55;101371.38;5082723;27;66270;-34
2022/01/17 00:34:28;;;;;;;75.70;28.67;;;;;;;29.11;57.03;101368.03;5087114;27;70664;-36
2022/01/17 00:36:59;;;;;;;57.97;26.00;;;;;;;29.19;56.91;101354.38;5086452;27;66115;-37
2022/01/17 00:39:29;;;;;;;55.65;25.73;;;;;;;29.24;57.14;101360.03;5090074;27;70070;-38
2022/01/17 00:42:00;;;;;;;58.60;25.67;;;;;;;29.22;56.78;101348.56;5091035;27;66286;-35
2022/01/17 00:44:30;;;;;;;56.28;23.15;;;;;;;29.29;57.13;101354.88;5086787;27;69695;-35
2022/01/17 00:47:00;;;;;;;61.50;22.45;;;;;;;29.30;56.87;101345.72;5087796;27;65657;-37
2022/01/17 00:49:30;;;;;;;74.38;24.15;;;;;;;29.34;56.89;101379.44;5087701;27;69629;-35
2022/01/17 00:52:01;;;;;;;37.50;20.70;;;;;;;29.36;57.08;101355.75;5085158;27;66680;-34
2022/01/17 00:54:31;;;;;;;39.13;18.70;;;;;;;29.37;57.10;101352.00;5089429;27;70241;-35
2022/01/17 00:57:02;;;;;;;45.42;21.15;;;;;;;29.30;57.46;101344.91;5083447;27;66040;-35
2022/01/17 00:59:33;;;;;;;33.33;18.80;;;;;;;29.42;57.03;101347.88;5083921;27;70103;-35
2022/01/17 01:02:03;;;;;;;28.23;18.30;;;;;;;29.50;56.97;101366.63;5084858;27;66724;-35
2022/01/17 01:04:34;;;;;;;25.95;17.45;;;;;;;29.48;56.91;101355.19;5084707;27;70529;-35
2022/01/17 01:07:04;;;;;;;26.50;17.63;;;;;;;29.54;56.84;101368.75;5091007;27;65626;-35
2022/01/17 01:09:43;;;;;;;31.63;17.63;;;;;;;29.54;56.17;101357.94;5086792;27;69928;-34
2022/01/17 01:12:13;;;;;;;27.05;15.95;;;;;;;29.61;56.11;101368.75;5093001;27;65652;-36
2022/01/17 01:14:45;;;;;;;21.27;16.38;;;;;;;29.64;56.62;101354.88;5087832;27;69253;-34
2022/01/17 01:17:31;;;;;;;22.38;17.67;;;;;;;29.64;56.04;101344.06;5072025;27;66486;-34
2022/01/17 01:28:40;;;;;;;28.67;18.27;;;;;;;29.69;56.04;101357.00;5089824;27;65999;-35
2022/01/17 01:31:15;;;;;;;28.23;18.80;;;;;;;29.76;55.54;101377.63;5081876;27;69746;-34
2022/01/17 01:33:54;;;;;;;26.38;18.65;;;;;;;29.74;55.88;101362.63;5084372;27;66522;-34
2022/01/17 01:36:28;;;;;;;30.85;18.92;;;;;;;29.79;55.49;101379.91;5078514;27;70153;-35
2022/01/17 01:38:58;;;;;;;33.22;19.52;;;;;;;29.81;55.48;101368.88;5091614;27;65912;-34
2022/01/17 01:41:28;;;;;;;25.48;17.85;;;;;;;29.83;55.16;101367.66;5091276;27;70210;-34
2022/01/17 01:43:59;;;;;;;30.60;19.95;;;;;;;29.88;55.32;101379.75;5096413;27;65722;-35
2022/01/17 01:46:30;;;;;;;41.77;21.47;;;;;;;29.86;55.27;101373.69;5085013;27;70084;-35
2022/01/17 01:49:00;;;;;;;30.27;20.27;;;;;;;29.89;55.55;101376.81;5089080;27;66192;-35
2022/01/17 01:51:30;;;;;;;28.33;20.88;;;;;;;29.89;55.42;101371.41;5083539;27;69557;-35
2022/01/17 01:54:01;;;;;;;35.13;21.27;;;;;;;29.93;55.14;101385.41;5089652;27;66221;-35
2022/01/17 01:56:31;;;;;;;28.05;20.70;;;;;;;29.95;54.93;101380.59;5089055;27;69175;-35
2022/01/17 01:59:01;;;;;;;31.63;21.02;;;;;;;29.96;55.34;101382.28;5086585;27;66751;-34
2022/01/17 02:01:32;;;;;;;31.38;21.48;;;;;;;29.92;54.85;101375.59;5087546;27;70076;-34
2022/01/17 02:04:04;;;;;;;39.80;23.33;;;;;;;29.98;55.24;101380.22;5086522;27;67085;-35
2022/01/17 02:06:34;;;;;;;32.10;21.35;;;;;;;29.97;55.13;101383.94;5091512;27;69338;-34
2022/01/17 02:09:06;;;;;;;32.95;22.50;;;;;;;30.01;54.58;101377.09;5091034;27;66555;-35
2022/01/17 02:11:37;;;;;;;27.50;21.60;;;;;;;30.03;54.81;101372.31;5089809;27;70096;-35
2022/01/17 02:14:07;;;;;;;34.97;22.60;;;;;;;30.00;54.65;101370.84;5094942;27;66035;-34
2022/01/17 02:16:40;;;;;;;30.67;22.13;;;;;;;30.05;54.81;101370.22;5093332;27;69822;-35
2022/01/17 02:19:12;;;;;;;34.88;22.90;;;;;;;30.05;54.34;101370.22;5089372;27;66531;-35
2022/01/17 02:21:46;;;;;;;33.03;23.08;;;;;;;30.08;54.94;101383.34;5096494;27;70051;-35
2022/01/17 02:24:20;;;;;;;32.60;23.10;;;;;;;30.11;54.61;101377.53;5103969;27;65359;-34
2022/01/17 02:26:52;;;;;;;33.20;22.35;;;;;;;30.09;54.62;101376.94;5080773;27;70622;-35
2022/01/17 02:29:22;;;;;;;31.35;23.15;;;;;;;30.13;54.34;101382.75;5083492;27;65629;-34
2022/01/17 02:31:53;;;;;;;39.28;23.77;;;;;;;29.90;54.50;101340.66;5081869;27;69978;-35
2022/01/17 02:34:23;;;;;;;31.13;22.20;;;;;;;30.14;54.08;101373.59;5084367;27;66186;-34
2022/01/17 02:36:54;;;;;;;38.05;23.50;;;;;;;30.18;54.70;101381.09;5092558;27;69607;-35
2022/01/17 02:39:24;;;;;;;36.97;22.30;;;;;;;30.06;53.88;101355.66;5085811;27;66205;-35
2022/01/17 02:41:54;;;;;;;31.02;21.60;;;;;;;30.21;54.35;101380.69;5093628;27;69883;-34
2022/01/17 02:44:24;;;;;;;30.88;22.90;;;;;;;30.23;54.01;101367.84;5081381;27;66632;-35
2022/01/17 02:46:55;;;;;;;35.75;23.67;;;;;;;30.22;54.02;101359.91;5084405;27;70620;-34
2022/01/17 02:49:25;;;;;;;28.08;21.42;;;;;;;30.25;54.06;101360.31;5083839;27;66826;-34
2022/01/17 02:51:56;;;;;;;34.40;23.83;;;;;;;30.27;53.93;101363.66;5088725;27;69338;-35
2022/01/17 02:54:26;;;;;;;37.50;22.75;;;;;;;30.28;53.73;101359.94;5085110;27;65523;-35
2022/01/17 02:56:56;;;;;;;31.65;23.30;;;;;;;30.32;54.04;101360.34;5088265;27;69501;-35
2022/01/17 02:59:26;;;;;;;35.00;24.50;;;;;;;30.28;54.20;101341.00;5086149;27;65785;-35
2022/01/17 03:01:59;;;;;;;32.80;22.80;;;;;;;30.34;53.78;101349.31;5085935;27;69923;-34
2022/01/17 03:04:30;;;;;;;34.78;23.52;;;;;;;30.37;53.75;101346.19;5089814;27;65774;-38
2022/01/17 03:07:01;;;;;;;37.40;23.83;;;;;;;30.34;53.82;101343.91;5085112;27;70603;-35
2022/01/17 03:09:40;;;;;;;32.75;24.30;;;;;;;30.40;53.68;101353.94;5082416;27;66463;-35
2022/01/17 03:12:11;;;;;;;36.17;23.67;;;;;;;30.41;53.91;101344.75;5087778;27;70303;-35
2022/01/17 03:14:41;;;;;;;40.58;25.35;;;;;;;30.43;53.47;101339.97;5082671;27;66558;-34
2022/01/17 03:17:12;;;;;;;41.95;26.45;;;;;;;30.43;53.81;101331.84;5081371;27;69143;-34
2022/01/17 03:19:42;;;;;;;39.00;25.13;;;;;;;30.47;53.57;101335.81;5087987;27;66142;-35
2022/01/17 03:22:12;;;;;;;33.47;24.17;;;;;;;30.49;53.11;101339.16;5082045;27;69650;-35
2022/01/17 03:24:43;;;;;;;33.67;24.38;;;;;;;30.50;53.56;101325.38;5068234;27;66208;-34
2022/01/17 03:27:13;;;;;;;37.13;25.85;;;;;;;30.54;52.99;101330.41;5082574;27;69580;-33
2022/01/17 03:29:43;;;;;;;36.97;26.13;;;;;;;30.55;52.90;101327.47;5083002;27;65776;-36
2022/01/17 03:32:14;;;;;;;38.97;25.50;;;;;;;30.56;52.85;101307.47;5080039;27;69657;-35
2022/01/17 03:34:44;;;;;;;38.72;25.08;;;;;;;30.59;53.32;101307.09;5084119;27;66725;-35
2022/01/17 03:37:15;;;;;;;32.90;23.70;;;;;;;30.61;52.74;101299.56;5085727;27;69855;-35
2022/01/17 03:39:45;;;;;;;29.23;23.00;;;;;;;30.62;52.92;101301.25;5084060;27;66136;-35
2022/01/17 03:42:18;;;;;;;35.58;24.90;;;;;;;30.65;52.65;101300.84;5086608;27;70200;-35
2022/01/17 03:44:49;;;;;;;36.42;24.92;;;;;;;30.59;53.19;101285.44;5081349;27;66495;-35
2022/01/17 03:47:20;;;;;;;34.63;24.67;;;;;;;30.65;52.86;101294.59;5084188;27;69935;-35
2022/01/17 03:49:50;;;;;;;37.33;24.23;;;;;;;30.69;53.01;101296.66;5078950;27;66018;-35
2022/01/17 03:52:20;;;;;;;34.42;24.67;;;;;;;30.71;52.43;101294.56;5082255;27;69955;-35
2022/01/17 03:54:52;;;;;;;34.38;24.42;;;;;;;30.72;52.67;101284.56;5088073;27;65801;-35
2022/01/17 03:57:22;;;;;;;36.53;25.45;;;;;;;30.71;52.80;101283.75;5082494;27;70091;-35
2022/01/17 03:59:52;;;;;;;33.92;24.85;;;;;;;30.78;52.73;101288.31;5088667;27;66780;-34
2022/01/17 04:02:23;;;;;;;35.85;25.17;;;;;;;30.77;52.40;101282.06;5085147;27;70007;-34
2022/01/17 04:04:54;;;;;;;37.37;24.93;;;;;;;30.79;52.59;101285.41;5088618;27;66248;-35
2022/01/17 04:07:24;;;;;;;32.83;24.17;;;;;;;30.78;52.58;101277.47;5079807;27;70563;-33
2022/01/17 04:09:54;;;;;;;40.53;24.45;;;;;;;30.80;52.83;101265.44;5081492;27;65204;-34
2022/01/17 04:12:24;;;;;;;34.33;24.05;;;;;;;30.60;52.49;101235.63;5084232;27;69998;-35
2022/01/17 04:14:56;;;;;;;40.80;24.02;;;;;;;30.86;52.55;101263.75;5083953;27;66612;-36
2022/01/17 04:17:29;;;;;;;35.58;24.70;;;;;;;30.88;52.29;101258.97;5097970;27;70178;-35
2022/01/17 04:20:07;;;;;;;32.42;24.33;;;;;;;30.92;52.07;101257.47;5084966;27;66200;-35
2022/01/17 04:22:42;;;;;;;42.67;24.60;;;;;;;30.53;52.31;101191.47;5083878;27;70016;-36
2022/01/17 04:25:12;;;;;;;34.13;24.35;;;;;;;30.94;52.45;101256.22;5083303;27;65120;-36
2022/01/17 04:27:43;;;;;;;30.10;23.45;;;;;;;30.97;52.44;101249.56;5077358;27;69394;-35
2022/01/17 04:30:14;;;;;;;31.60;24.33;;;;;;;30.93;51.78;101237.50;5089347;27;66532;-36
2022/01/17 04:32:45;;;;;;;38.05;23.88;;;;;;;31.01;51.92;101234.56;5089987;27;70069;-36
2022/01/17 04:35:21;;;;;;;31.77;23.65;;;;;;;30.98;52.20;101224.16;5091959;27;66053;-35
2022/01/17 04:38:03;;;;;;;33.20;23.48;;;;;;;31.05;51.89;101227.66;5087764;27;69477;-35
2022/01/17 04:40:37;;;;;;;28.33;23.42;;;;;;;31.03;52.02;101210.78;5090657;27;66973;-35
2022/01/17 04:43:22;;;;;;;29.90;22.73;;;;;;;30.99;51.82;101198.72;5090601;27;70080;-36
2022/01/17 04:45:52;;;;;;;31.92;22.73;;;;;;;31.08;51.95;101208.25;5082446;27;66626;-35
2022/01/17 04:48:23;;;;;;;33.03;21.63;;;;;;;31.09;51.94;101209.94;5086144;27;70393;-35
2022/01/17 04:50:53;;;;;;;33.08;22.30;;;;;;;31.07;51.40;101201.19;5083723;27;67137;-35
2022/01/17 04:53:24;;;;;;;29.45;22.75;;;;;;;31.13;51.85;101200.31;5087943;27;70247;-35
2022/01/17 04:55:54;;;;;;;27.63;21.25;;;;;;;31.12;51.34;101184.25;5089330;27;65762;-34
2022/01/17 04:58:24;;;;;;;34.55;23.15;;;;;;;31.13;51.20;101194.91;5088577;27;70174;-35
2022/01/17 05:00:55;;;;;;;34.17;22.30;;;;;;;31.10;51.58;101172.81;5089634;27;65581;-35
2022/01/17 05:03:26;;;;;;;30.83;23.10;;;;;;;31.20;51.69;101172.34;5082871;27;69952;-37
2022/01/17 05:05:57;;;;;;;27.77;22.10;;;;;;;31.16;51.58;101164.66;5082024;27;65306;-35
2022/01/17 05:08:28;;;;;;;30.00;22.38;;;;;;;31.19;51.70;101165.28;5093472;27;70346;-34
2022/01/17 05:10:59;;;;;;;27.70;22.03;;;;;;;31.21;51.35;101157.78;5083036;27;65339;-35
2022/01/17 05:13:33;;;;;;;26.25;21.40;;;;;;;31.21;51.35;101158.59;5078829;27;70403;-34
2022/01/17 05:16:09;;;;;;;33.38;21.67;;;;;;;31.25;51.14;101159.00;5084128;27;66301;-35
2022/01/17 05:21:10;;;;;;;28.20;22.25;;;;;;;31.27;51.04;101140.66;5088393;27;66078;-34
2022/01/17 05:23:42;;;;;;;31.77;22.25;;;;;;;31.28;51.07;101142.28;5081063;27;70360;-34
2022/01/17 05:26:12;;;;;;;29.65;22.73;;;;;;;31.28;51.58;101131.44;5080219;27;65430;-35
2022/01/17 05:28:43;;;;;;;30.50;21.92;;;;;;;31.31;51.07;101125.59;5078940;27;69265;-35
2022/01/17 05:31:15;;;;;;;29.77;22.38;;;;;;;31.32;51.54;101121.84;5090595;27;65516;-35
2022/01/17 05:33:46;;;;;;;29.35;22.42;;;;;;;31.32;51.43;101119.97;5093570;27;70315;-35
2022/01/17 05:36:16;;;;;;;33.40;23.40;;;;;;;31.34;51.51;101111.59;5070652;27;66775;-35
2022/01/17 05:38:46;;;;;;;33.45;23.20;;;;;;;31.33;51.30;101108.06;5086173;27;69830;-36
2022/01/17 05:41:16;;;;;;;32.00;23.13;;;;;;;31.36;50.75;101104.94;5090384;27;65361;-36
2022/01/17 05:43:47;;;;;;;29.50;23.08;;;;;;;31.39;51.25;101095.56;5086083;27;70343;-35
2022/01/17 05:46:17;;;;;;;28.23;23.13;;;;;;;31.37;50.89;101092.22;5080966;27;66107;-35
2022/01/17 05:48:48;;;;;;;28.58;22.05;;;;;;;31.41;51.02;101093.47;5082395;27;69553;-36
2022/01/17 05:51:21;;;;;;;27.33;22.40;;;;;;;31.41;50.99;101085.31;5089448;27;66333;-35
2022/01/17 05:53:51;;;;;;;29.77;22.75;;;;;;;31.42;51.21;101078.84;5089186;27;70034;-35
2022/01/17 05:56:21;;;;;;;32.42;22.52;;;;;;;31.40;50.87;101067.41;5091313;27;66563;-34
2022/01/17 05:58:52;;;;;;;29.88;23.52;;;;;;;31.44;50.89;101070.50;5088162;27;70301;-34
2022/01/17 06:01:22;;;;;;;25.08;21.23;;;;;;;31.44;50.79;101062.38;5089571;27;66262;-35
2022/01/17 06:03:52;;;;;;;28.83;22.20;;;;;;;31.45;50.97;101062.13;5087770;27;69724;-34
2022/01/17 06:06:22;;;;;;;32.03;22.55;;;;;;;31.45;51.07;101062.13;5084100;27;66503;-35
2022/01/17 06:08:53;;;;;;;25.70;21.85;;;;;;;31.47;51.16;101062.75;5093941;27;69948;-35
2022/01/17 06:11:23;;;;;;;27.90;22.50;;;;;;;31.47;51.13;101054.63;5091533;27;66651;-34
2022/01/17 06:13:53;;;;;;;27.10;22.38;;;;;;;31.46;51.03;101046.72;5085271;27;70184;-35
2022/01/17 06:16:23;;;;;;;29.00;22.33;;;;;;;31.46;50.97;101046.72;5085434;27;65559;-35
2022/01/17 06:18:54;;;;;;;27.92;22.27;;;;;;;31.47;51.18;101048.38;5088846;27;70249;-35
2022/01/17 06:21:24;;;;;;;29.60;22.77;;;;;;;31.41;51.33;101030.28;5085431;27;66459;-34
2022/01/17 06:23:54;;;;;;;26.63;21.13;;;;;;;31.46;50.65;101044.84;5088716;27;70604;-35
2022/01/17 06:26:24;;;;;;;28.65;22.15;;;;;;;31.43;50.56;101025.47;5085590;27;66926;-34
2022/01/17 06:28:55;;;;;;;28.77;21.77;;;;;;;31.47;51.00;101038.34;5087771;27;70121;-35
2022/01/17 06:31:29;;;;;;;31.20;22.95;;;;;;;31.46;50.84;101034.00;5094103;27;65251;-34
2022/01/17 06:33:59;;;;;;;32.65;23.77;;;;;;;31.43;50.83;101020.88;5091402;27;69671;-35
2022/01/17 06:36:31;;;;;;;24.70;21.85;;;;;;;31.46;50.64;101025.88;5088799;27;66218;-35
2022/01/17 06:39:03;;;;;;;39.37;23.23;;;;;;;31.44;51.00;101011.69;5086142;27;69885;-34
2022/01/17 06:41:33;;;;;;;;;;;;;;;31.21;51.52;101006.03;5089763;27;66607;-34
2022/01/17 06:44:03;;;;;;;30.50;22.83;;;;;;;31.42;50.97;101002.94;5088463;27;69681;-34
2022/01/17 06:46:34;;;;;;;37.85;23.42;;;;;;;31.44;51.36;101008.16;5082172;27;65237;-35
2022/01/17 06:49:05;;;;;;;28.83;22.70;;;;;;;31.39;51.18;100997.97;5083896;27;69948;-35
2022/01/17 06:51:36;;;;;;;26.85;22.83;;;;;;;31.45;50.85;100996.25;5081821;27;66259;-35
2022/01/17 06:54:06;;;;;;;28.23;22.63;;;;;;;31.44;50.95;100995.44;5089175;27;71463;-35
2022/01/17 06:56:43;;;;;;;34.53;23.08;;;;;;;31.42;51.29;100986.69;5085331;27;65957;-36
2022/01/17 06:59:14;;;;;;;27.48;22.52;;;;;;;31.42;50.81;100980.44;5088930;27;70285;-35
2022/01/17 07:01:45;;;;;;;29.23;22.35;;;;;;;31.44;51.12;100975.63;5093458;27;65669;-35
2022/01/17 07:04:15;;;;;;;28.23;22.77;;;;;;;31.45;50.95;100980.81;5088626;27;70283;-35
2022/01/17 07:06:45;;;;;;;24.63;21.63;;;;;;;31.40;50.84;100969.84;5090082;27;65681;-35
2022/01/17 07:09:19;;;;;;;25.98;22.13;;;;;;;31.45;51.25;100975.38;5092038;27;70269;-34
2022/01/17 07:11:49;;;;;;;31.63;22.83;;;;;;;31.45;50.90;100972.69;5085570;27;65867;-35
2022/01/17 07:14:19;;;;;;;27.70;21.65;;;;;;;31.44;50.88;100962.06;5089382;27;70466;-35
2022/01/17 07:16:49;;;;;;;25.92;21.80;;;;;;;31.43;51.20;100955.81;5089324;27;66395;-35
2022/01/17 07:19:20;;;;;;;26.05;21.33;;;;;;;31.47;50.71;100948.91;5092046;27;69337;-36
2022/01/17 07:21:51;;;;;;;28.08;22.25;;;;;;;31.51;51.00;100942.00;5083161;27;66836;-35
2022/01/17 07:24:39;;;;;;;28.25;22.27;;;;;;;31.51;51.02;100941.13;5086304;27;69776;-36
2022/01/17 07:27:09;;;;;;;28.55;22.83;;;;;;;31.35;50.83;100920.84;5081216;27;66647;-36
2022/01/17 07:29:40;;;;;;;30.38;22.25;;;;;;;31.50;51.03;100940.31;5089465;27;70083;-35
2022/01/17 07:32:10;;;;;;;27.77;22.23;;;;;;;31.53;50.63;100929.00;5092214;27;66848;-36
2022/01/17 07:34:41;;;;;;;27.85;22.23;;;;;;;31.53;51.15;100937.16;5067720;27;69506;-35
2022/01/17 07:37:11;;;;;;;26.90;22.10;;;;;;;31.50;50.79;100929.47;5073095;27;65266;-35
2022/01/17 07:39:43;;;;;;;24.70;22.02;;;;;;;31.55;50.76;100926.91;5087766;27;70267;-34
2022/01/17 07:42:13;;;;;;;26.67;21.42;;;;;;;31.55;51.08;100924.22;5085796;27;65523;-34
2022/01/17 07:44:52;;;;;;;31.67;22.63;;;;;;;31.59;50.69;100922.72;5081542;27;70126;-34
2022/01/17 07:47:41;;;;;;;27.33;21.60;;;;;;;31.61;51.06;100926.00;5084169;27;66322;-35
2022/01/17 07:50:15;;;;;;;30.42;22.60;;;;;;;31.57;50.81;100919.41;5086214;27;68906;-35
2022/01/17 07:52:47;;;;;;;31.58;22.92;;;;;;;31.66;50.94;100924.53;5085449;27;66730;-35
2022/01/17 07:55:19;;;;;;;25.55;21.60;;;;;;;31.66;50.95;100910.97;5085657;27;70822;-36
2022/01/17 07:57:49;;;;;;;31.73;22.73;;;;;;;31.65;50.68;100909.28;5083917;27;66005;-35
2022/01/17 08:00:22;;;;;;;25.38;21.30;;;;;;;31.73;50.92;100906.28;5087526;27;70021;-35
2022/01/17 08:02:56;;;;;;;24.85;21.95;;;;;;;31.74;50.52;100902.53;5082304;27;65808;-34
2022/01/17 08:05:26;;;;;;;27.83;22.08;;;;;;;31.69;50.69;100889.66;5086196;27;68886;-35
2022/01/17 08:07:57;;;;;;;29.90;22.85;;;;;;;31.75;50.77;100896.88;5094184;27;66311;-35
2022/01/17 08:10:28;;;;;;;28.42;22.55;;;;;;;31.75;50.29;100902.28;5083725;27;69959;-35
2022/01/17 08:13:00;;;;;;;32.00;22.60;;;;;;;31.80;50.29;100904.34;5084016;27;66179;-35
2022/01/17 08:15:34;;;;;;;28.58;23.08;;;;;;;31.75;50.47;100894.16;5079664;27;70067;-35
2022/01/17 08:18:05;;;;;;;29.52;22.67;;;;;;;31.82;50.23;100904.94;5084960;27;66137;-35
2022/01/17 08:20:35;;;;;;;25.65;21.92;;;;;;;31.82;50.73;100900.34;5087927;27;69891;-36
2022/01/17 08:23:06;;;;;;;24.25;21.85;;;;;;;31.86;50.54;100905.31;5078702;27;66019;-36
2022/01/17 08:25:38;;;;;;;29.90;23.30;;;;;;;31.91;50.54;100903.63;5091146;27;69374;-36
2022/01/17 08:28:08;;;;;;;31.58;22.27;;;;;;;31.90;50.58;100907.38;5090262;27;64634;-36
2022/01/17 08:30:38;;;;;;;24.77;21.98;;;;;;;31.90;50.13;100912.78;5083410;27;70166;-36
2022/01/17 08:33:28;;;;;;;29.52;21.98;;;;;;;31.92;50.48;100905.25;5086793;27;65580;-35
2022/01/17 08:35:59;;;;;;;29.60;22.23;;;;;;;31.93;50.45;100906.94;5088030;27;70183;-34
2022/01/17 08:38:49;;;;;;;25.67;22.13;;;;;;;31.94;50.05;100916.72;5087667;27;65488;-34
2022/01/17 08:41:19;;;;;;;26.63;20.90;;;;;;;31.93;50.67;100912.38;5084848;27;70218;-35
2022/01/17 08:43:50;;;;;;;35.23;21.93;;;;;;;31.90;50.13;100911.94;5081301;27;65964;-34
2022/01/17 08:46:21;;;;;;;28.48;21.60;;;;;;;31.93;50.21;100917.78;5079475;27;70961;-34
2022/01/17 08:48:53;;;;;;;26.40;21.90;;;;;;;31.94;50.73;100921.31;5079892;27;66965;-35
2022/01/17 08:51:23;;;;;;;26.00;20.83;;;;;;;31.93;50.51;100923.22;5084034;27;69207;-35
2022/01/17 08:53:53;;;;;;;22.77;20.38;;;;;;;31.94;50.20;100924.03;5080661;27;65523;-35
2022/01/17 08:56:27;;;;;;;26.27;21.40;;;;;;;31.87;50.47;100918.63;5082647;27;70565;-35
2022/01/17 08:58:58;;;;;;;25.33;21.83;;;;;;;31.94;50.67;100926.75;5083899;27;66642;-36
2022/01/17 09:01:29;;;;;;;27.53;21.00;;;;;;;31.90;50.72;100926.34;5082275;27;69511;-36
2022/01/17 09:04:00;;;;;;;25.45;21.15;;;;;;;31.92;50.16;100928.84;5082186;27;66115;-36
2022/01/17 09:06:30;;;;;;;27.83;21.33;;;;;;;31.94;50.33;100930.28;5090451;27;69789;-36
2022/01/17 09:09:00;;;;;;;23.40;20.83;;;;;;;31.94;50.28;100935.72;5081081;27;66510;-35
2022/01/17 09:11:31;;;;;;;25.55;21.33;;;;;;;31.94;50.43;100933.00;5089568;27;69592;-35
2022/01/17 09:14:01;;;;;;;23.25;20.80;;;;;;;31.95;50.52;100931.13;5085606;27;66373;-35
2022/01/17 09:16:31;;;;;;;31.67;22.05;;;;;;;31.95;50.68;100937.34;5081022;27;69646;-35
2022/01/17 09:19:07;;;;;;;25.40;20.88;;;;;;;31.91;50.25;100929.88;5079160;27;66282;-35
2022/01/17 09:21:38;;;;;;;23.20;19.73;;;;;;;31.94;50.45;100946.56;5080668;27;71342;-34
2022/01/17 09:24:08;;;;;;;23.88;20.63;;;;;;;31.89;50.28;100932.81;5081488;27;65355;-34
2022/01/17 09:26:38;;;;;;;25.60;22.00;;;;;;;31.94;50.33;100957.41;5080243;27;70403;-34
2022/01/17 09:29:09;;;;;;;22.30;20.10;;;;;;;31.94;50.61;100957.41;5088701;27;65584;-34
2022/01/17 09:31:39;;;;;;;29.80;20.58;;;;;;;31.96;50.61;100959.91;5086942;27;70700;-35
2022/01/17 09:34:10;;;;;;;30.27;20.03;;;;;;;31.92;50.58;100943.25;5086691;27;66065;-36
2022/01/17 09:36:41;;;;;;;25.20;19.50;;;;;;;31.95;50.72;100964.50;5088769;27;69669;-36
2022/01/17 09:39:11;;;;;;;24.50;19.15;;;;;;;31.95;50.26;100961.78;5091737;27;66067;-35
2022/01/17 09:41:42;;;;;;;22.15;18.10;;;;;;;31.89;50.42;100954.53;5082676;27;70325;-35
2022/01/17 09:44:13;;;;;;;23.73;19.50;;;;;;;31.92;50.47;100964.13;5089237;27;65419;-34
2022/01/17 09:46:47;;;;;;;23.67;18.52;;;;;;;31.91;50.39;100962.44;5088710;27;69508;-35
2022/01/17 09:49:35;;;;;;;22.73;18.92;;;;;;;31.94;50.46;100967.44;5087158;27;66294;-35
2022/01/17 09:52:24;;;;;;;24.15;18.05;;;;;;;31.56;50.71;100912.28;5090775;27;70374;-36
2022/01/17 09:54:59;;;;;;;22.45;17.48;;;;;;;31.93;50.34;100972.06;5084105;27;66250;-35
2022/01/17 09:57:32;;;;;;;23.13;18.05;;;;;;;31.96;50.57;100981.63;5091214;27;69694;-36
2022/01/17 10:00:03;;;;;;;22.33;18.33;;;;;;;31.95;50.22;100969.91;5082113;27;65620;-35
2022/01/17 10:02:41;;;;;;;21.30;18.77;;;;;;;31.94;50.42;100973.69;5085100;27;69916;-34
2022/01/17 10:05:15;;;;;;;20.15;17.85;;;;;;;31.95;50.28;100969.91;5091582;27;67158;-35
2022/01/17 10:08:01;;;;;;;19.95;17.83;;;;;;;31.92;50.62;100970.38;5088366;27;69868;-35
2022/01/17 10:10:44;;;;;;;23.15;18.05;;;;;;;31.92;50.56;100970.38;5090226;27;66839;-36
2022/01/17 10:13:24;;;;;;;21.20;17.33;;;;;;;31.87;50.67;100962.03;5088346;27;69504;-36
2022/01/17 10:16:07;;;;;;;19.60;17.50;;;;;;;31.70;50.69;100933.84;5065424;27;66259;-36
2022/01/17 10:18:40;;;;;;;19.20;16.95;;;;;;;31.93;50.75;100966.63;5078520;27;70225;-35
2022/01/17 10:21:21;;;;;;;18.88;16.88;;;;;;;31.90;50.55;100966.19;5086608;27;66038;-35
2022/01/17 10:35:33;;;;;;;18.35;15.55;;;;;;;31.80;50.96;100972.16;5086424;27;69266;-35
2022/01/17 10:38:19;;;;;;;18.50;15.85;;;;;;;31.67;50.61;100942.44;5088309;27;66211;-35
2022/01/17 10:40:59;;;;;;;16.95;15.15;;;;;;;31.70;50.28;100956.38;5089803;27;69633;-36
2022/01/17 10:43:35;;;;;;;18.83;15.85;;;;;;;31.67;50.71;100950.59;5087878;27;66284;-36
2022/01/17 10:46:11;;;;;;;19.20;15.30;;;;;;;31.66;50.70;100948.94;5083264;27;70976;-35
2022/01/17 10:48:44;;;;;;;18.83;15.35;;;;;;;31.81;50.77;100990.06;5089963;27;66431;-35
2022/01/17 10:51:15;;;;;;;18.08;14.43;;;;;;;31.83;50.36;100994.22;5085926;27;70285;-35
2022/01/17 10:53:51;;;;;;;16.27;14.70;;;;;;;31.65;50.90;100966.25;5089123;27;65432;-35
2022/01/17 10:56:25;;;;;;;21.63;15.18;;;;;;;31.75;50.47;100982.84;5083164;27;70274;-35
2022/01/17 10:59:04;;;;;;;18.60;14.73;;;;;;;31.78;50.77;100995.94;5085088;27;65573;-36
2022/01/17 11:01:38;;;;;;;17.48;13.32;;;;;;;31.79;51.38;100993.03;5086555;27;70744;-37
2022/01/17 11:04:09;;;;;;;27.85;13.93;;;;;;;31.80;51.11;100999.28;5083409;27;66372;-37
2022/01/17 11:06:47;;;;;;;16.60;12.77;;;;;;;31.69;51.80;100987.28;5088609;27;69504;-37
2022/01/17 11:09:22;;;;;;;16.27;12.63;;;;;;;31.82;52.35;101006.13;5093902;27;66766;-36
2022/01/17 11:11:52;;;;;;;25.80;12.13;;;;;;;31.85;52.83;101013.00;5083834;27;69389;-35
2022/01/17 11:14:23;;;;;;;18.55;12.32;;;;;;;31.90;52.17;101018.59;5080624;27;65185;-38
2022/01/17 11:16:53;;;;;;;17.00;12.43;;;;;;;31.91;52.57;101019.41;5082803;27;70152;-36
2022/01/17 11:22:14;;;;;;;19.70;11.93;;;;;;;31.91;53.13;101033.84;5081547;27;70022;-37
2022/01/17 11:24:46;;;;;;;29.20;11.57;;;;;;;31.88;53.62;101028.00;5086580;27;66162;-37
2022/01/17 11:27:16;;;;;;;22.13;11.20;;;;;;;31.77;54.18;101032.28;5085500;27;70213;-37
2022/01/17 11:29:48;;;;;;;22.27;11.70;;;;;;;31.77;54.17;101032.28;5082126;27;66584;-37
2022/01/17 11:32:19;;;;;;;15.18;10.68;;;;;;;31.73;54.99;101041.91;5074582;27;69521;-36
2022/01/17 11:34:52;;;;;;;19.23;10.90;;;;;;;31.54;54.37;101022.88;5081600;27;66250;-36
2022/01/17 11:37:23;;;;;;;15.85;9.80;;;;;;;31.65;54.84;101044.88;5082481;27;70316;-37
2022/01/17 11:39:56;;;;;;;14.23;9.77;;;;;;;31.61;54.61;101045.31;5088619;27;67325;-36
2022/01/17 11:42:37;;;;;;;23.23;10.63;;;;;;;31.58;54.99;101056.63;5092528;27;70259;-37
2022/01/17 11:45:22;;;;;;;21.50;10.70;;;;;;;31.52;55.42;101054.78;5079984;27;66299;-37
2022/01/17 11:48:00;;;;;;;11.65;9.73;;;;;;;31.42;54.66;101035.47;5093519;27;69176;-37
2022/01/17 11:50:34;;;;;;;15.18;9.90;;;;;;;31.52;54.70;101062.09;5087913;27;65367;-36
2022/01/17 11:53:07;;;;;;;11.05;9.77;;;;;;;31.53;54.38;101059.16;5084822;27;70259;-37
2022/01/17 11:58:24;;;;;;;11.57;9.93;;;;;;;31.49;55.08;101068.81;5089711;27;69636;-36
2022/01/17 12:01:00;;;;;;;11.07;9.98;;;;;;;31.48;54.64;101071.72;5080737;27;65716;-37
2022/01/17 12:03:40;;;;;;;15.73;9.88;;;;;;;31.46;55.08;101076.56;5082230;27;70020;-37